sensor_id;sensor_type;location;lat;lon;timestamp;temperature;humidity
11609;DHT22;5860;52.018;8.536;2024-03-08T00:00:13;1.20;99.90
11609;DHT22;5860;52.018;8.536;2024-03-08T00:02:43;1.20;99.90
11609;DHT22;5860;52.018;8.536;2024-03-08T00:05:12;1.20;99.90
11609;DHT22;5860;52.018;8.536;2024-03-08T00:07:39;1.20;99.90
11609;DHT22;5860;52.018;8.536;2024-03-08T00:10:09;1.20;99.90
11609;DHT22;5860;52.018;8.536;2024-03-08T00:12:41;1.20;99.90
11609;DHT22;5860;52.018;8.536;2024-03-08T00:15:16;1.10;99.90
11609;DHT22;5860;52.018;8.536;2024-03-08T00:17:46;1.20;99.90
11609;DHT22;5860;52.018;8.536;2024-03-08T00:20:14;1.20;99.90
11609;DHT22;5860;52.018;8.536;2024-03-08T00:22:41;1.10;99.90
11609;DHT22;5860;52.018;8.536;2024-03-08T00:25:09;1.10;99.90
11609;DHT22;5860;52.018;8.536;2024-03-08T00:27:37;1.10;99.90
11609;DHT22;5860;52.018;8.536;2024-03-08T00:30:05;1.10;99.90
11609;DHT22;5860;52.018;8.536;2024-03-08T00:32:33;1.10;99.90
11609;DHT22;5860;52.018;8.536;2024-03-08T00:35:00;0.90;99.90
11609;DHT22;5860;52.018;8.536;2024-03-08T00:37:27;1.00;99.90
11609;DHT22;5860;52.018;8.536;2024-03-08T00:39:54;0.90;99.90
11609;DHT22;5860;52.018;8.536;2024-03-08T00:42:21;0.80;99.90
11609;DHT22;5860;52.018;8.536;2024-03-08T00:44:48;0.80;99.90
11609;DHT22;5860;52.018;8.536;2024-03-08T00:47:18;0.90;99.90
11609;DHT22;5860;52.018;8.536;2024-03-08T00:49:45;0.70;99.90
11609;DHT22;5860;52.018;8.536;2024-03-08T00:52:13;0.60;99.90
11609;DHT22;5860;52.018;8.536;2024-03-08T00:54:41;0.50;99.90
11609;DHT22;5860;52.018;8.536;2024-03-08T00:57:09;0.40;99.90
11609;DHT22;5860;52.018;8.536;2024-03-08T00:59:38;0.40;99.90
11609;DHT22;5860;52.018;8.536;2024-03-08T01:02:05;0.40;99.90
11609;DHT22;5860;52.018;8.536;2024-03-08T01:04:32;0.50;99.90
11609;DHT22;5860;52.018;8.536;2024-03-08T01:07:00;0.40;99.90
11609;DHT22;5860;52.018;8.536;2024-03-08T01:09:27;0.50;99.90
11609;DHT22;5860;52.018;8.536;2024-03-08T01:11:55;0.40;99.90
11609;DHT22;5860;52.018;8.536;2024-03-08T01:14:23;0.30;99.90
11609;DHT22;5860;52.018;8.536;2024-03-08T01:16:50;0.30;99.90
11609;DHT22;5860;52.018;8.536;2024-03-08T01:19:17;0.30;99.90
11609;DHT22;5860;52.018;8.536;2024-03-08T01:21:44;0.30;99.90
11609;DHT22;5860;52.018;8.536;2024-03-08T01:24:11;0.20;99.90
11609;DHT22;5860;52.018;8.536;2024-03-08T01:26:38;0.20;99.90
11609;DHT22;5860;52.018;8.536;2024-03-08T01:29:05;0.20;99.90
11609;DHT22;5860;52.018;8.536;2024-03-08T01:31:32;0.20;99.90
11609;DHT22;5860;52.018;8.536;2024-03-08T01:33:59;0.20;99.90
11609;DHT22;5860;52.018;8.536;2024-03-08T01:36:26;0.40;99.90
11609;DHT22;5860;52.018;8.536;2024-03-08T01:38:53;0.50;99.90
11609;DHT22;5860;52.018;8.536;2024-03-08T01:41:20;0.40;99.90
11609;DHT22;5860;52.018;8.536;2024-03-08T01:43:47;0.50;99.90
11609;DHT22;5860;52.018;8.536;2024-03-08T01:46:19;0.50;99.90
11609;DHT22;5860;52.018;8.536;2024-03-08T01:48:48;0.40;99.90
11609;DHT22;5860;52.018;8.536;2024-03-08T01:51:18;0.50;99.90
11609;DHT22;5860;52.018;8.536;2024-03-08T01:53:46;0.40;99.90
11609;DHT22;5860;52.018;8.536;2024-03-08T01:56:14;0.40;99.90
11609;DHT22;5860;52.018;8.536;2024-03-08T01:58:41;0.40;99.90
11609;DHT22;5860;52.018;8.536;2024-03-08T02:01:12;0.40;99.90
11609;DHT22;5860;52.018;8.536;2024-03-08T02:03:42;0.20;99.90
11609;DHT22;5860;52.018;8.536;2024-03-08T02:06:13;0.20;99.90
11609;DHT22;5860;52.018;8.536;2024-03-08T02:08:45;0.20;99.90
11609;DHT22;5860;52.018;8.536;2024-03-08T02:11:13;0.30;99.90
11609;DHT22;5860;52.018;8.536;2024-03-08T02:13:40;0.40;99.90
11609;DHT22;5860;52.018;8.536;2024-03-08T02:16:07;0.40;99.90
11609;DHT22;5860;52.018;8.536;2024-03-08T02:18:35;0.50;99.90
11609;DHT22;5860;52.018;8.536;2024-03-08T02:21:05;0.60;99.90
11609;DHT22;5860;52.018;8.536;2024-03-08T02:23:33;0.50;99.90
11609;DHT22;5860;52.018;8.536;2024-03-08T02:26:00;0.50;99.90
11609;DHT22;5860;52.018;8.536;2024-03-08T02:28:27;0.40;99.90
11609;DHT22;5860;52.018;8.536;2024-03-08T02:30:56;0.40;99.90
11609;DHT22;5860;52.018;8.536;2024-03-08T02:33:27;0.20;99.90
11609;DHT22;5860;52.018;8.536;2024-03-08T02:35:54;0.40;99.90
11609;DHT22;5860;52.018;8.536;2024-03-08T02:38:23;0.40;99.90
11609;DHT22;5860;52.018;8.536;2024-03-08T02:40:53;0.40;99.90
11609;DHT22;5860;52.018;8.536;2024-03-08T02:43:21;0.30;99.90
11609;DHT22;5860;52.018;8.536;2024-03-08T02:45:52;0.40;99.90
11609;DHT22;5860;52.018;8.536;2024-03-08T02:48:21;0.30;99.90
11609;DHT22;5860;52.018;8.536;2024-03-08T02:50:49;0.10;99.90
11609;DHT22;5860;52.018;8.536;2024-03-08T02:53:18;0.20;99.90
11609;DHT22;5860;52.018;8.536;2024-03-08T02:55:49;0.20;99.90
11609;DHT22;5860;52.018;8.536;2024-03-08T02:58:16;0.30;99.90
11609;DHT22;5860;52.018;8.536;2024-03-08T03:00:43;0.30;99.90
11609;DHT22;5860;52.018;8.536;2024-03-08T03:03:11;0.30;99.90
11609;DHT22;5860;52.018;8.536;2024-03-08T03:05:38;0.20;99.90
11609;DHT22;5860;52.018;8.536;2024-03-08T03:08:05;0.40;99.90
11609;DHT22;5860;52.018;8.536;2024-03-08T03:10:36;0.40;99.90
11609;DHT22;5860;52.018;8.536;2024-03-08T03:13:04;0.20;99.90
11609;DHT22;5860;52.018;8.536;2024-03-08T03:15:31;0.20;99.90
11609;DHT22;5860;52.018;8.536;2024-03-08T03:18:00;0.20;99.90
11609;DHT22;5860;52.018;8.536;2024-03-08T03:20:27;0.10;99.90
11609;DHT22;5860;52.018;8.536;2024-03-08T03:23:00;0.00;99.90
11609;DHT22;5860;52.018;8.536;2024-03-08T03:25:30;-0.10;99.90
11609;DHT22;5860;52.018;8.536;2024-03-08T03:28:02;-0.10;99.90
11609;DHT22;5860;52.018;8.536;2024-03-08T03:30:30;0.10;99.90
11609;DHT22;5860;52.018;8.536;2024-03-08T03:33:01;0.00;99.90
11609;DHT22;5860;52.018;8.536;2024-03-08T03:35:28;-0.10;99.90
11609;DHT22;5860;52.018;8.536;2024-03-08T03:37:58;-0.10;99.90
11609;DHT22;5860;52.018;8.536;2024-03-08T03:40:38;-0.20;99.90
11609;DHT22;5860;52.018;8.536;2024-03-08T03:43:06;-0.20;99.90
11609;DHT22;5860;52.018;8.536;2024-03-08T03:45:34;-0.30;99.90
11609;DHT22;5860;52.018;8.536;2024-03-08T03:48:04;-0.20;99.90
11609;DHT22;5860;52.018;8.536;2024-03-08T03:50:34;-0.20;99.90
11609;DHT22;5860;52.018;8.536;2024-03-08T03:53:03;-0.10;99.90
11609;DHT22;5860;52.018;8.536;2024-03-08T03:55:30;0.10;99.90
11609;DHT22;5860;52.018;8.536;2024-03-08T03:57:57;0.40;99.90
11609;DHT22;5860;52.018;8.536;2024-03-08T04:00:26;0.30;99.90
11609;DHT22;5860;52.018;8.536;2024-03-08T04:02:54;0.20;99.90
11609;DHT22;5860;52.018;8.536;2024-03-08T04:05:23;0.20;99.90
11609;DHT22;5860;52.018;8.536;2024-03-08T04:07:50;0.20;99.90
11609;DHT22;5860;52.018;8.536;2024-03-08T04:10:17;0.10;99.90
11609;DHT22;5860;52.018;8.536;2024-03-08T04:12:43;0.10;99.90
11609;DHT22;5860;52.018;8.536;2024-03-08T04:15:11;0.10;99.90
11609;DHT22;5860;52.018;8.536;2024-03-08T04:17:38;0.10;99.90
11609;DHT22;5860;52.018;8.536;2024-03-08T04:20:06;0.00;99.90
11609;DHT22;5860;52.018;8.536;2024-03-08T04:22:38;0.00;99.90
11609;DHT22;5860;52.018;8.536;2024-03-08T04:25:06;-0.10;99.90
11609;DHT22;5860;52.018;8.536;2024-03-08T04:27:33;-0.10;99.90
11609;DHT22;5860;52.018;8.536;2024-03-08T04:30:02;-0.20;99.90
11609;DHT22;5860;52.018;8.536;2024-03-08T04:32:29;-0.30;99.90
11609;DHT22;5860;52.018;8.536;2024-03-08T04:34:59;-0.30;99.90
11609;DHT22;5860;52.018;8.536;2024-03-08T04:37:28;-0.20;99.90
11609;DHT22;5860;52.018;8.536;2024-03-08T04:39:59;-0.20;99.90
11609;DHT22;5860;52.018;8.536;2024-03-08T04:42:29;0.00;99.90
11609;DHT22;5860;52.018;8.536;2024-03-08T04:44:59;-0.20;99.90
11609;DHT22;5860;52.018;8.536;2024-03-08T04:47:26;-0.10;99.90
11609;DHT22;5860;52.018;8.536;2024-03-08T04:49:53;-0.10;99.90
11609;DHT22;5860;52.018;8.536;2024-03-08T04:52:21;-0.20;99.90
11609;DHT22;5860;52.018;8.536;2024-03-08T04:54:49;-0.20;99.90
11609;DHT22;5860;52.018;8.536;2024-03-08T04:57:16;-0.20;99.90
11609;DHT22;5860;52.018;8.536;2024-03-08T04:59:46;-0.30;99.90
11609;DHT22;5860;52.018;8.536;2024-03-08T05:02:12;-0.50;99.90
11609;DHT22;5860;52.018;8.536;2024-03-08T05:04:39;-0.40;99.90
11609;DHT22;5860;52.018;8.536;2024-03-08T05:07:06;-0.50;99.90
11609;DHT22;5860;52.018;8.536;2024-03-08T05:09:34;-0.60;99.90
11609;DHT22;5860;52.018;8.536;2024-03-08T05:12:02;-0.60;99.90
11609;DHT22;5860;52.018;8.536;2024-03-08T05:14:29;-0.60;99.90
11609;DHT22;5860;52.018;8.536;2024-03-08T05:16:57;-0.60;99.90
11609;DHT22;5860;52.018;8.536;2024-03-08T05:19:23;-0.60;99.90
11609;DHT22;5860;52.018;8.536;2024-03-08T05:21:51;-0.60;99.90
11609;DHT22;5860;52.018;8.536;2024-03-08T05:24:18;-0.20;99.90
11609;DHT22;5860;52.018;8.536;2024-03-08T05:26:46;0.00;99.90
11609;DHT22;5860;52.018;8.536;2024-03-08T05:29:14;0.00;99.90
11609;DHT22;5860;52.018;8.536;2024-03-08T05:31:49;-0.10;99.90
11609;DHT22;5860;52.018;8.536;2024-03-08T05:34:17;0.00;99.90
11609;DHT22;5860;52.018;8.536;2024-03-08T05:36:44;-0.10;99.90
11609;DHT22;5860;52.018;8.536;2024-03-08T05:39:12;-0.10;99.90
11609;DHT22;5860;52.018;8.536;2024-03-08T05:41:40;0.00;99.90
11609;DHT22;5860;52.018;8.536;2024-03-08T05:44:07;0.00;99.90
11609;DHT22;5860;52.018;8.536;2024-03-08T05:46:35;0.00;99.90
11609;DHT22;5860;52.018;8.536;2024-03-08T05:49:06;-0.10;99.90
11609;DHT22;5860;52.018;8.536;2024-03-08T05:51:35;0.00;99.90
11609;DHT22;5860;52.018;8.536;2024-03-08T05:54:02;-0.10;99.90
11609;DHT22;5860;52.018;8.536;2024-03-08T05:56:30;0.00;99.90
11609;DHT22;5860;52.018;8.536;2024-03-08T05:58:57;0.00;99.90
11609;DHT22;5860;52.018;8.536;2024-03-08T06:01:28;0.00;99.90
11609;DHT22;5860;52.018;8.536;2024-03-08T06:03:56;0.00;99.90
11609;DHT22;5860;52.018;8.536;2024-03-08T06:06:24;0.00;99.90
11609;DHT22;5860;52.018;8.536;2024-03-08T06:08:52;-0.10;99.90
11609;DHT22;5860;52.018;8.536;2024-03-08T06:11:20;-0.10;99.90
11609;DHT22;5860;52.018;8.536;2024-03-08T06:13:47;0.00;99.90
11609;DHT22;5860;52.018;8.536;2024-03-08T06:16:14;0.00;99.90
11609;DHT22;5860;52.018;8.536;2024-03-08T06:18:41;0.00;99.90
11609;DHT22;5860;52.018;8.536;2024-03-08T06:21:09;0.10;99.90
11609;DHT22;5860;52.018;8.536;2024-03-08T06:23:38;0.10;99.90
11609;DHT22;5860;52.018;8.536;2024-03-08T06:26:09;0.30;99.90
11609;DHT22;5860;52.018;8.536;2024-03-08T06:28:36;0.20;99.90
11609;DHT22;5860;52.018;8.536;2024-03-08T06:31:03;0.30;99.90
11609;DHT22;5860;52.018;8.536;2024-03-08T06:33:30;0.30;99.90
11609;DHT22;5860;52.018;8.536;2024-03-08T06:35:59;0.30;99.90
11609;DHT22;5860;52.018;8.536;2024-03-08T06:38:26;0.40;99.90
11609;DHT22;5860;52.018;8.536;2024-03-08T06:40:53;0.50;99.90
11609;DHT22;5860;52.018;8.536;2024-03-08T06:43:21;0.50;99.90
11609;DHT22;5860;52.018;8.536;2024-03-08T06:45:48;0.60;99.90
11609;DHT22;5860;52.018;8.536;2024-03-08T06:48:19;0.70;99.90
11609;DHT22;5860;52.018;8.536;2024-03-08T06:50:47;0.70;99.90
11609;DHT22;5860;52.018;8.536;2024-03-08T06:53:15;0.80;99.90
11609;DHT22;5860;52.018;8.536;2024-03-08T06:55:45;0.80;99.90
11609;DHT22;5860;52.018;8.536;2024-03-08T06:58:12;0.90;99.90
11609;DHT22;5860;52.018;8.536;2024-03-08T07:00:38;0.90;99.90
11609;DHT22;5860;52.018;8.536;2024-03-08T07:03:08;0.90;99.90
11609;DHT22;5860;52.018;8.536;2024-03-08T07:05:39;0.90;99.90
11609;DHT22;5860;52.018;8.536;2024-03-08T07:08:07;1.00;55.40
11609;DHT22;5860;52.018;8.536;2024-03-08T07:10:34;1.10;46.00
11609;DHT22;5860;52.018;8.536;2024-03-08T07:13:02;1.20;1.00
11609;DHT22;5860;52.018;8.536;2024-03-08T07:15:29;1.20;1.00
11609;DHT22;5860;52.018;8.536;2024-03-08T07:17:56;1.20;1.00
11609;DHT22;5860;52.018;8.536;2024-03-08T07:20:23;1.30;1.00
11609;DHT22;5860;52.018;8.536;2024-03-08T07:22:50;1.40;1.00
11609;DHT22;5860;52.018;8.536;2024-03-08T07:25:20;1.40;99.90
11609;DHT22;5860;52.018;8.536;2024-03-08T07:27:50;1.40;54.70
11609;DHT22;5860;52.018;8.536;2024-03-08T07:30:22;1.50;1.00
11609;DHT22;5860;52.018;8.536;2024-03-08T07:33:07;1.60;1.00
11609;DHT22;5860;52.018;8.536;2024-03-08T07:35:39;1.60;99.90
11609;DHT22;5860;52.018;8.536;2024-03-08T07:38:10;1.70;1.00
11609;DHT22;5860;52.018;8.536;2024-03-08T07:40:39;1.80;99.90
11609;DHT22;5860;52.018;8.536;2024-03-08T07:43:08;1.80;1.00
11609;DHT22;5860;52.018;8.536;2024-03-08T07:45:35;1.80;1.00
11609;DHT22;5860;52.018;8.536;2024-03-08T07:48:03;1.90;99.90
11609;DHT22;5860;52.018;8.536;2024-03-08T07:50:30;1.90;1.00
11609;DHT22;5860;52.018;8.536;2024-03-08T07:53:00;2.10;99.90
11609;DHT22;5860;52.018;8.536;2024-03-08T07:55:28;2.10;99.30
11609;DHT22;5860;52.018;8.536;2024-03-08T07:57:55;2.10;99.90
11609;DHT22;5860;52.018;8.536;2024-03-08T08:00:22;2.10;99.90
11609;DHT22;5860;52.018;8.536;2024-03-08T08:02:51;2.30;59.70
11609;DHT22;5860;52.018;8.536;2024-03-08T08:05:17;2.50;1.00
11609;DHT22;5860;52.018;8.536;2024-03-08T08:07:45;2.40;1.00
11609;DHT22;5860;52.018;8.536;2024-03-08T08:10:16;2.40;1.00
11609;DHT22;5860;52.018;8.536;2024-03-08T08:12:49;2.50;1.00
11609;DHT22;5860;52.018;8.536;2024-03-08T08:15:16;2.40;99.90
11609;DHT22;5860;52.018;8.536;2024-03-08T08:17:46;2.60;99.90
11609;DHT22;5860;52.018;8.536;2024-03-08T08:20:18;2.60;4.80
11609;DHT22;5860;52.018;8.536;2024-03-08T08:22:45;2.60;99.90
11609;DHT22;5860;52.018;8.536;2024-03-08T08:25:14;2.80;1.00
11609;DHT22;5860;52.018;8.536;2024-03-08T08:27:42;2.70;1.00
11609;DHT22;5860;52.018;8.536;2024-03-08T08:30:10;2.90;1.00
11609;DHT22;5860;52.018;8.536;2024-03-08T08:32:38;3.10;1.00
11609;DHT22;5860;52.018;8.536;2024-03-08T08:35:14;3.10;99.90
11609;DHT22;5860;52.018;8.536;2024-03-08T08:37:41;3.10;99.90
11609;DHT22;5860;52.018;8.536;2024-03-08T08:40:08;3.20;63.10
11609;DHT22;5860;52.018;8.536;2024-03-08T08:42:37;3.40;61.90
11609;DHT22;5860;52.018;8.536;2024-03-08T08:45:07;3.50;1.00
11609;DHT22;5860;52.018;8.536;2024-03-08T08:47:43;3.40;1.00
11609;DHT22;5860;52.018;8.536;2024-03-08T08:50:12;3.50;1.00
11609;DHT22;5860;52.018;8.536;2024-03-08T08:52:40;3.50;1.00
11609;DHT22;5860;52.018;8.536;2024-03-08T08:55:07;3.70;1.00
11609;DHT22;5860;52.018;8.536;2024-03-08T08:57:35;3.60;99.90
11609;DHT22;5860;52.018;8.536;2024-03-08T09:00:03;3.80;99.90
11609;DHT22;5860;52.018;8.536;2024-03-08T09:02:34;3.90;99.90
11609;DHT22;5860;52.018;8.536;2024-03-08T09:05:02;4.10;99.90
11609;DHT22;5860;52.018;8.536;2024-03-08T09:07:30;4.00;1.00
11609;DHT22;5860;52.018;8.536;2024-03-08T09:09:57;4.20;1.00
11609;DHT22;5860;52.018;8.536;2024-03-08T09:12:26;4.30;1.00
11609;DHT22;5860;52.018;8.536;2024-03-08T09:14:53;4.40;1.00
11609;DHT22;5860;52.018;8.536;2024-03-08T09:17:20;4.40;1.00
11609;DHT22;5860;52.018;8.536;2024-03-08T09:19:47;4.70;1.00
11609;DHT22;5860;52.018;8.536;2024-03-08T09:22:15;4.60;99.90
11609;DHT22;5860;52.018;8.536;2024-03-08T09:24:42;4.60;99.90
11609;DHT22;5860;52.018;8.536;2024-03-08T09:27:10;4.80;99.90
11609;DHT22;5860;52.018;8.536;2024-03-08T09:29:37;4.80;99.90
11609;DHT22;5860;52.018;8.536;2024-03-08T09:32:04;4.80;99.90
11609;DHT22;5860;52.018;8.536;2024-03-08T09:34:31;4.90;99.90
11609;DHT22;5860;52.018;8.536;2024-03-08T09:37:04;5.10;99.90
11609;DHT22;5860;52.018;8.536;2024-03-08T09:39:31;5.00;1.00
11609;DHT22;5860;52.018;8.536;2024-03-08T09:42:01;5.20;1.00
11609;DHT22;5860;52.018;8.536;2024-03-08T09:44:28;5.30;1.00
11609;DHT22;5860;52.018;8.536;2024-03-08T09:46:55;5.20;1.00
11609;DHT22;5860;52.018;8.536;2024-03-08T09:49:25;5.30;1.00
11609;DHT22;5860;52.018;8.536;2024-03-08T09:51:52;5.40;1.00
11609;DHT22;5860;52.018;8.536;2024-03-08T09:54:20;5.60;1.00
11609;DHT22;5860;52.018;8.536;2024-03-08T09:56:52;5.50;1.00
11609;DHT22;5860;52.018;8.536;2024-03-08T09:59:20;5.60;1.00
11609;DHT22;5860;52.018;8.536;2024-03-08T10:02:12;5.60;1.00
11609;DHT22;5860;52.018;8.536;2024-03-08T10:04:42;5.60;1.00
11609;DHT22;5860;52.018;8.536;2024-03-08T10:07:09;5.70;1.00
11609;DHT22;5860;52.018;8.536;2024-03-08T10:09:36;5.70;1.00
11609;DHT22;5860;52.018;8.536;2024-03-08T10:12:04;5.80;1.00
11609;DHT22;5860;52.018;8.536;2024-03-08T10:14:32;5.90;1.00
11609;DHT22;5860;52.018;8.536;2024-03-08T10:16:59;6.10;99.90
11609;DHT22;5860;52.018;8.536;2024-03-08T10:19:27;6.10;99.90
11609;DHT22;5860;52.018;8.536;2024-03-08T10:21:58;6.00;99.90
11609;DHT22;5860;52.018;8.536;2024-03-08T10:24:26;6.00;99.90
11609;DHT22;5860;52.018;8.536;2024-03-08T10:27:01;6.00;99.90
11609;DHT22;5860;52.018;8.536;2024-03-08T10:29:31;6.10;99.90
11609;DHT22;5860;52.018;8.536;2024-03-08T10:31:59;6.30;99.90
11609;DHT22;5860;52.018;8.536;2024-03-08T10:34:27;6.30;99.90
11609;DHT22;5860;52.018;8.536;2024-03-08T10:37:01;6.50;99.90
11609;DHT22;5860;52.018;8.536;2024-03-08T10:39:35;6.40;99.90
11609;DHT22;5860;52.018;8.536;2024-03-08T10:42:04;6.70;99.90
11609;DHT22;5860;52.018;8.536;2024-03-08T10:44:49;6.70;99.90
11609;DHT22;5860;52.018;8.536;2024-03-08T10:47:29;6.90;99.90
11609;DHT22;5860;52.018;8.536;2024-03-08T10:50:17;6.80;99.90
11609;DHT22;5860;52.018;8.536;2024-03-08T10:52:49;7.10;99.90
11609;DHT22;5860;52.018;8.536;2024-03-08T10:55:19;7.00;42.50
11609;DHT22;5860;52.018;8.536;2024-03-08T10:57:47;7.20;46.70
11609;DHT22;5860;52.018;8.536;2024-03-08T11:00:14;7.40;14.70
11609;DHT22;5860;52.018;8.536;2024-03-08T11:02:45;7.30;1.00
11609;DHT22;5860;52.018;8.536;2024-03-08T11:05:35;7.50;11.80
11609;DHT22;5860;52.018;8.536;2024-03-08T11:10:51;7.30;2.60
11609;DHT22;5860;52.018;8.536;2024-03-08T11:13:40;7.20;1.00
11609;DHT22;5860;52.018;8.536;2024-03-08T11:16:12;7.10;1.00
11609;DHT22;5860;52.018;8.536;2024-03-08T11:18:39;7.30;1.00
11609;DHT22;5860;52.018;8.536;2024-03-08T11:21:10;7.30;1.00
11609;DHT22;5860;52.018;8.536;2024-03-08T11:23:39;7.30;1.00
11609;DHT22;5860;52.018;8.536;2024-03-08T11:26:24;7.30;1.00
11609;DHT22;5860;52.018;8.536;2024-03-08T11:28:51;7.40;1.00
11609;DHT22;5860;52.018;8.536;2024-03-08T11:31:25;7.40;1.00
11609;DHT22;5860;52.018;8.536;2024-03-08T11:33:53;7.50;1.00
11609;DHT22;5860;52.018;8.536;2024-03-08T11:36:25;7.50;1.00
11609;DHT22;5860;52.018;8.536;2024-03-08T11:38:53;7.50;1.00
11609;DHT22;5860;52.018;8.536;2024-03-08T11:41:22;7.50;1.00
11609;DHT22;5860;52.018;8.536;2024-03-08T11:44:04;7.50;1.00
11609;DHT22;5860;52.018;8.536;2024-03-08T11:46:32;7.50;1.00
11609;DHT22;5860;52.018;8.536;2024-03-08T11:49:00;7.60;1.00
11609;DHT22;5860;52.018;8.536;2024-03-08T11:51:27;7.50;1.00
11609;DHT22;5860;52.018;8.536;2024-03-08T11:53:54;7.40;1.00
11609;DHT22;5860;52.018;8.536;2024-03-08T11:56:22;7.60;1.00
11609;DHT22;5860;52.018;8.536;2024-03-08T11:58:55;7.50;1.00
11609;DHT22;5860;52.018;8.536;2024-03-08T12:01:25;7.80;1.00
11609;DHT22;5860;52.018;8.536;2024-03-08T12:03:57;7.70;1.00
11609;DHT22;5860;52.018;8.536;2024-03-08T12:06:27;7.80;1.00
11609;DHT22;5860;52.018;8.536;2024-03-08T12:09:02;8.00;1.00
11609;DHT22;5860;52.018;8.536;2024-03-08T12:11:29;8.00;1.00
11609;DHT22;5860;52.018;8.536;2024-03-08T12:14:00;7.70;1.00
11609;DHT22;5860;52.018;8.536;2024-03-08T12:16:28;7.80;1.00
11609;DHT22;5860;52.018;8.536;2024-03-08T12:18:56;7.90;1.00
11609;DHT22;5860;52.018;8.536;2024-03-08T12:21:23;7.90;1.00
11609;DHT22;5860;52.018;8.536;2024-03-08T12:24:06;8.30;1.00
11609;DHT22;5860;52.018;8.536;2024-03-08T12:26:37;8.10;1.00
11609;DHT22;5860;52.018;8.536;2024-03-08T12:29:17;8.20;1.00
11609;DHT22;5860;52.018;8.536;2024-03-08T12:31:48;8.20;1.00
11609;DHT22;5860;52.018;8.536;2024-03-08T12:34:15;8.40;1.00
11609;DHT22;5860;52.018;8.536;2024-03-08T12:36:51;8.20;1.00
11609;DHT22;5860;52.018;8.536;2024-03-08T12:39:22;8.10;1.00
11609;DHT22;5860;52.018;8.536;2024-03-08T12:41:49;8.30;1.00
11609;DHT22;5860;52.018;8.536;2024-03-08T12:44:20;8.30;1.00
11609;DHT22;5860;52.018;8.536;2024-03-08T12:46:49;8.40;1.00
11609;DHT22;5860;52.018;8.536;2024-03-08T12:49:19;8.40;1.00
11609;DHT22;5860;52.018;8.536;2024-03-08T12:51:49;8.50;1.00
11609;DHT22;5860;52.018;8.536;2024-03-08T12:54:17;8.30;1.00
11609;DHT22;5860;52.018;8.536;2024-03-08T12:56:44;8.20;1.00
11609;DHT22;5860;52.018;8.536;2024-03-08T12:59:11;8.30;1.00
11609;DHT22;5860;52.018;8.536;2024-03-08T13:01:39;8.30;1.00
11609;DHT22;5860;52.018;8.536;2024-03-08T13:04:06;8.40;1.00
11609;DHT22;5860;52.018;8.536;2024-03-08T13:06:38;8.40;1.00
11609;DHT22;5860;52.018;8.536;2024-03-08T13:09:05;8.40;1.00
11609;DHT22;5860;52.018;8.536;2024-03-08T13:11:32;8.40;1.00
11609;DHT22;5860;52.018;8.536;2024-03-08T13:14:04;8.30;1.00
11609;DHT22;5860;52.018;8.536;2024-03-08T13:16:34;8.20;1.00
11609;DHT22;5860;52.018;8.536;2024-03-08T13:19:02;8.20;1.00
11609;DHT22;5860;52.018;8.536;2024-03-08T13:21:29;8.40;1.00
11609;DHT22;5860;52.018;8.536;2024-03-08T13:23:57;8.60;1.00
11609;DHT22;5860;52.018;8.536;2024-03-08T13:26:26;8.50;1.00
11609;DHT22;5860;52.018;8.536;2024-03-08T13:29:00;8.40;1.00
11609;DHT22;5860;52.018;8.536;2024-03-08T13:31:27;8.40;1.00
11609;DHT22;5860;52.018;8.536;2024-03-08T13:33:55;8.50;1.00
11609;DHT22;5860;52.018;8.536;2024-03-08T13:36:25;8.30;1.00
11609;DHT22;5860;52.018;8.536;2024-03-08T13:38:56;8.40;1.00
11609;DHT22;5860;52.018;8.536;2024-03-08T13:41:26;8.30;1.00
11609;DHT22;5860;52.018;8.536;2024-03-08T13:43:57;8.50;1.00
11609;DHT22;5860;52.018;8.536;2024-03-08T13:46:24;8.40;1.00
11609;DHT22;5860;52.018;8.536;2024-03-08T13:48:52;8.50;1.00
11609;DHT22;5860;52.018;8.536;2024-03-08T13:51:20;8.60;1.00
11609;DHT22;5860;52.018;8.536;2024-03-08T13:53:49;8.70;1.00
11609;DHT22;5860;52.018;8.536;2024-03-08T13:56:16;8.70;1.00
11609;DHT22;5860;52.018;8.536;2024-03-08T13:58:44;8.80;1.00
11609;DHT22;5860;52.018;8.536;2024-03-08T14:01:11;8.60;1.00
11609;DHT22;5860;52.018;8.536;2024-03-08T14:03:39;8.60;1.00
11609;DHT22;5860;52.018;8.536;2024-03-08T14:06:09;8.60;1.00
11609;DHT22;5860;52.018;8.536;2024-03-08T14:08:51;8.60;1.00
11609;DHT22;5860;52.018;8.536;2024-03-08T14:11:18;8.70;1.00
11609;DHT22;5860;52.018;8.536;2024-03-08T14:13:46;8.80;1.00
11609;DHT22;5860;52.018;8.536;2024-03-08T14:16:14;8.80;1.00
11609;DHT22;5860;52.018;8.536;2024-03-08T14:18:42;9.00;1.00
11609;DHT22;5860;52.018;8.536;2024-03-08T14:21:09;8.80;1.00
11609;DHT22;5860;52.018;8.536;2024-03-08T14:23:40;8.90;1.00
11609;DHT22;5860;52.018;8.536;2024-03-08T14:26:07;8.90;1.00
11609;DHT22;5860;52.018;8.536;2024-03-08T14:28:35;8.90;1.00
11609;DHT22;5860;52.018;8.536;2024-03-08T14:31:03;9.00;1.00
11609;DHT22;5860;52.018;8.536;2024-03-08T14:33:33;9.00;1.00
11609;DHT22;5860;52.018;8.536;2024-03-08T14:36:00;9.10;1.00
11609;DHT22;5860;52.018;8.536;2024-03-08T14:38:28;9.20;1.00
11609;DHT22;5860;52.018;8.536;2024-03-08T14:40:55;9.20;1.00
11609;DHT22;5860;52.018;8.536;2024-03-08T14:43:23;9.10;1.00
11609;DHT22;5860;52.018;8.536;2024-03-08T14:45:51;9.10;1.00
11609;DHT22;5860;52.018;8.536;2024-03-08T14:48:19;9.20;1.00
11609;DHT22;5860;52.018;8.536;2024-03-08T14:50:47;9.10;1.00
11609;DHT22;5860;52.018;8.536;2024-03-08T14:53:14;9.20;1.00
11609;DHT22;5860;52.018;8.536;2024-03-08T14:55:43;9.20;1.00
11609;DHT22;5860;52.018;8.536;2024-03-08T14:58:14;9.20;1.00
11609;DHT22;5860;52.018;8.536;2024-03-08T15:00:42;9.20;1.00
11609;DHT22;5860;52.018;8.536;2024-03-08T15:03:10;9.10;1.00
11609;DHT22;5860;52.018;8.536;2024-03-08T15:05:43;9.10;1.00
11609;DHT22;5860;52.018;8.536;2024-03-08T15:08:14;9.00;1.00
11609;DHT22;5860;52.018;8.536;2024-03-08T15:10:47;8.90;1.00
11609;DHT22;5860;52.018;8.536;2024-03-08T15:13:22;8.90;1.00
11609;DHT22;5860;52.018;8.536;2024-03-08T15:15:50;9.10;1.00
11609;DHT22;5860;52.018;8.536;2024-03-08T15:18:25;9.10;1.00
11609;DHT22;5860;52.018;8.536;2024-03-08T15:20:53;9.00;1.00
11609;DHT22;5860;52.018;8.536;2024-03-08T15:23:20;8.90;1.00
11609;DHT22;5860;52.018;8.536;2024-03-08T15:25:48;9.00;1.00
11609;DHT22;5860;52.018;8.536;2024-03-08T15:28:17;8.80;1.00
11609;DHT22;5860;52.018;8.536;2024-03-08T15:30:47;8.90;1.00
11609;DHT22;5860;52.018;8.536;2024-03-08T15:33:21;8.90;1.00
11609;DHT22;5860;52.018;8.536;2024-03-08T15:35:53;9.00;1.00
11609;DHT22;5860;52.018;8.536;2024-03-08T15:38:26;8.90;1.00
11609;DHT22;5860;52.018;8.536;2024-03-08T15:40:56;8.90;1.00
11609;DHT22;5860;52.018;8.536;2024-03-08T15:43:23;8.90;1.00
11609;DHT22;5860;52.018;8.536;2024-03-08T15:45:52;9.00;1.00
11609;DHT22;5860;52.018;8.536;2024-03-08T15:48:21;9.00;1.00
11609;DHT22;5860;52.018;8.536;2024-03-08T15:50:48;8.90;99.90
11609;DHT22;5860;52.018;8.536;2024-03-08T15:53:16;8.90;99.90
11609;DHT22;5860;52.018;8.536;2024-03-08T15:55:45;8.90;1.00
11609;DHT22;5860;52.018;8.536;2024-03-08T15:58:13;8.90;1.00
11609;DHT22;5860;52.018;8.536;2024-03-08T16:00:41;8.80;1.00
11609;DHT22;5860;52.018;8.536;2024-03-08T16:03:15;8.80;1.00
11609;DHT22;5860;52.018;8.536;2024-03-08T16:05:43;8.80;1.00
11609;DHT22;5860;52.018;8.536;2024-03-08T16:08:11;8.80;1.00
11609;DHT22;5860;52.018;8.536;2024-03-08T16:10:46;8.80;1.00
11609;DHT22;5860;52.018;8.536;2024-03-08T16:13:21;8.70;1.00
11609;DHT22;5860;52.018;8.536;2024-03-08T16:15:51;8.70;1.00
11609;DHT22;5860;52.018;8.536;2024-03-08T16:18:21;8.70;1.00
11609;DHT22;5860;52.018;8.536;2024-03-08T16:20:50;8.60;1.00